KSMO

Details ICAO KSMO (SMO)
Name SANTA MONICA MUNI
Region United States
Timezone America/Los_Angeles (UTC-7.0)
Plans Departing 141
Arriving 132
Stats Elevation 177 ft / 54 m (AMSL)
Location 34.015847° -118.451329°
Runways 1
Magnetic Variation 11.991° E
Sunrise 2018-05-22 12:49:14 UTC / 2018-05-22 05:49:14 Local
Sunset 2018-05-23 02:54:37 UTC / 2018-05-22 19:54:37 Local
Advertisement - Login to hide

Runways

ID Width Length Bearing (true) Bearing (mag) Surface Threshold Offset Overrun Length
03 151 ft / 46 m 4,978 ft / 1,517 m 44.45° 32.46° Asphalt 0 ft / 0 m 0 ft / 0 m
21 151 ft / 46 m 4,978 ft / 1,517 m 224.46° 212.47° Asphalt 0 ft / 0 m 0 ft / 0 m

Map

Weather


0- 5 10 15 20 25 30 35+ Temperature / ° C

Clouds and Precipitation
Forecast for 2018-05-23 00:00 UTC. Updated 2 hours ago

Ground ~20,000 ft ~40,000 ft Winds

METAR

KSMO 230051Z 24011KT 10SM CLR 17/12 A2990 RMK AO2 SLP124 T01670117

TAF

TAF KSMO 222342Z 2300/2324 23010KT P6SM SCT050 FM230600 VRB04KT P6SM OVC015 FM231700 16005KT P6SM SCT015 BKN030 FM232100 24009KT P6SM SCT250

Frequencies

Recorded 119.15 MHz ATIS
Unicom 122.95 MHz UNICOM
Tower 120.10 MHz TWR
Approach 124.90 MHz SOCAL APP
Approach 128.50 MHz SOCAL APP
Unicom 120.10 MHz CTAF
Ground 121.90 MHz GND
Approach 124.30 MHz SOCAL APP
Approach 125.20 MHz SOCAL APP
Departure 125.20 MHz SOCAL DEP
Warning: Do not use this data for real-world aviation or navigation. No guarantee of current accuracy is given.